Time;durP1;ratioP1;P1;durP2;ratioP2;P2;SDS_P1;SDS_P2;PMS_P1;PMS_P2;Temp;Humidity;BMP_temperature;BMP_pressure;BME280_temperature;BME280_humidity;BME280_pressure;Samples;Min_cycle;Max_cycle;Signal;HPM_P1;HPM_P2
2021/03/29 00:00:15;;;;;;;11.02;6.60;;;;;;;12.06;46.84;100933.72;5050457;28;20421;-38
2021/03/29 00:02:41;;;;;;;9.80;6.60;;;;;;;11.95;47.69;100938.69;5050873;28;20087;-38
2021/03/29 00:05:07;;;;;;;13.02;7.25;;;;;;;11.85;48.26;100936.28;5051228;28;20113;-37
2021/03/29 00:07:33;;;;;;;12.63;6.75;;;;;;;11.81;47.76;100932.31;5051388;28;20053;-38
2021/03/29 00:09:59;;;;;;;10.35;6.60;;;;;;;11.97;47.82;100937.50;5033862;28;20036;-37
2021/03/29 00:12:24;;;;;;;9.07;6.47;;;;;;;12.09;46.94;100941.38;5049924;28;20108;-38
2021/03/29 00:14:50;;;;;;;12.27;6.95;;;;;;;11.88;47.54;100935.91;5050205;28;20346;-38
2021/03/29 00:17:15;;;;;;;10.02;6.13;;;;;;;11.42;47.83;100944.00;5050145;28;20021;-38
2021/03/29 00:19:41;;;;;;;9.77;6.00;;;;;;;11.60;47.75;100946.38;5050039;28;20021;-37
2021/03/29 00:22:06;;;;;;;9.80;5.72;;;;;;;11.82;46.68;100937.47;5049851;28;20047;-51
2021/03/29 00:24:32;;;;;;;9.60;5.97;;;;;;;11.72;46.66;100939.56;5049906;28;20036;-49
2021/03/29 00:26:58;;;;;;;12.57;5.97;;;;;;;11.78;45.92;100930.81;5049821;28;20020;-37
2021/03/29 00:29:23;;;;;;;8.10;5.18;;;;;;;11.83;46.17;100928.44;5051060;28;20463;-37
2021/03/29 00:31:49;;;;;;;8.65;5.70;;;;;;;11.83;45.88;100931.13;5049674;28;20029;-37
2021/03/29 00:34:14;;;;;;;7.95;5.00;;;;;;;11.85;46.03;100929.09;5049894;28;20032;-37
2021/03/29 00:36:40;;;;;;;7.90;5.28;;;;;;;12.10;44.66;100931.53;5049782;28;20025;-37
2021/03/29 00:39:06;;;;;;;7.68;5.07;;;;;;;11.91;45.29;100928.38;5033328;28;20542;-37
2021/03/29 00:41:32;;;;;;;8.88;5.07;;;;;;;11.90;45.47;100928.59;5050949;28;20055;-38
2021/03/29 00:43:57;;;;;;;9.38;5.85;;;;;;;12.06;45.17;100936.41;5016398;28;20449;-38
2021/03/29 00:46:23;;;;;;;7.70;5.30;;;;;;;11.90;45.55;100925.94;5033083;28;20033;-36
2021/03/29 00:48:49;;;;;;;8.50;5.10;;;;;;;11.87;45.19;100943.06;5049449;28;20024;-37
2021/03/29 00:51:22;;;;;;;8.05;4.72;;;;;;;11.79;45.31;100939.69;5050836;28;20078;-37
2021/03/29 00:53:53;;;;;;;8.98;4.95;;;;;;;12.03;44.42;100942.13;5050813;28;20040;-37
2021/03/29 00:56:18;;;;;;;8.43;4.88;;;;;;;11.91;45.09;100941.72;5050343;28;20070;-48
2021/03/29 00:58:47;;;;;;;7.85;4.55;;;;;;;11.85;45.32;100941.63;5050333;28;20024;-48
2021/03/29 01:01:14;;;;;;;8.45;5.20;;;;;;;11.73;45.49;100942.06;5048740;28;20029;-47
2021/03/29 01:03:41;;;;;;;8.32;5.10;;;;;;;11.90;44.88;100953.41;5050549;28;20033;-47
2021/03/29 01:06:09;;;;;;;9.15;5.28;;;;;;;12.05;44.89;100948.09;5048776;28;20094;-51
2021/03/29 01:08:39;;;;;;;7.53;5.30;;;;;;;11.95;44.98;100936.84;5050099;28;20049;-49
2021/03/29 01:11:06;;;;;;;9.02;5.47;;;;;;;11.92;45.34;100954.06;5032433;28;20142;-48
2021/03/29 01:13:35;;;;;;;10.43;5.88;;;;;;;11.73;45.82;100952.72;5048678;28;20481;-38
2021/03/29 01:16:02;;;;;;;8.60;5.47;;;;;;;11.96;45.60;100946.53;5050544;28;20021;-37
2021/03/29 01:18:27;;;;;;;9.63;5.80;;;;;;;11.92;44.98;100954.06;5048864;28;20029;-38
2021/03/29 01:21:15;;;;;;;9.75;5.38;;;;;;;11.68;45.74;100957.75;5032354;28;20031;-37
2021/03/29 01:23:40;;;;;;;9.60;5.35;;;;;;;11.63;46.01;100957.50;5049757;28;20028;-50
2021/03/29 01:26:13;;;;;;;7.90;5.20;;;;;;;11.47;45.95;100955.78;5050596;28;20032;-48
2021/03/29 01:28:38;;;;;;;9.05;5.57;;;;;;;11.59;45.90;100945.50;5051280;28;20131;-48
2021/03/29 01:31:04;;;;;;;8.85;5.20;;;;;;;11.71;45.25;100960.06;5049466;28;20025;-37
2021/03/29 01:33:29;;;;;;;10.95;5.78;;;;;;;11.61;45.49;100964.00;5049520;28;20369;-38
2021/03/29 01:35:58;;;;;;;8.57;5.10;;;;;;;11.49;46.12;100948.44;5050673;28;20025;-38
2021/03/29 01:38:25;;;;;;;7.72;5.60;;;;;;;11.48;45.55;100957.47;5049335;28;20078;-38
2021/03/29 01:40:50;;;;;;;9.07;4.97;;;;;;;11.28;45.57;100949.09;5049298;28;20075;-38
2021/03/29 01:43:16;;;;;;;11.52;5.13;;;;;;;11.50;45.50;100957.28;5032583;28;20436;-51
2021/03/29 01:45:41;;;;;;;6.43;4.50;;;;;;;11.38;45.29;100956.03;5049387;28;20025;-48
2021/03/29 01:48:08;;;;;;;8.00;4.90;;;;;;;11.36;45.38;100956.22;5032837;28;20044;-51
2021/03/29 01:50:35;;;;;;;6.45;4.22;;;;;;;11.49;44.73;100948.44;5032654;28;20053;-49
2021/03/29 01:53:01;;;;;;;8.77;4.65;;;;;;;11.69;44.27;100946.09;5049143;28;20468;-49
2021/03/29 01:55:28;;;;;;;8.32;4.65;;;;;;;11.62;44.46;100955.00;5050455;28;20093;-50
2021/03/29 01:57:53;;;;;;;7.80;4.53;;;;;;;11.57;43.88;100917.38;5050665;28;20055;-48
2021/03/29 02:00:25;;;;;;;7.10;4.60;;;;;;;11.81;43.68;100943.81;5050664;28;20461;-51
2021/03/29 02:02:51;;;;;;;5.85;4.30;;;;;;;11.72;44.52;100948.38;5050285;28;20104;-48
2021/03/29 02:05:17;;;;;;;8.52;4.38;;;;;;;11.79;43.74;100959.16;5050399;28;20181;-48
2021/03/29 02:07:42;;;;;;;6.53;4.07;;;;;;;11.37;44.88;100952.56;5048641;28;20056;-51
2021/03/29 02:10:21;;;;;;;7.90;4.35;;;;;;;11.36;44.48;100956.22;5050466;28;20423;-49
2021/03/29 02:12:47;;;;;;;7.00;4.05;;;;;;;11.43;44.71;100951.00;5050497;28;20510;-51
2021/03/29 02:15:14;;;;;;;7.70;4.15;;;;;;;11.61;44.03;100962.16;5050564;28;20020;-48
2021/03/29 02:17:40;;;;;;;6.95;4.32;;;;;;;11.65;44.14;100950.16;5050103;28;20039;-49
2021/03/29 02:20:19;;;;;;;6.88;4.05;;;;;;;11.66;43.65;100962.44;5048963;28;20123;-49
2021/03/29 02:22:45;;;;;;;6.35;3.88;;;;;;;11.55;44.12;100945.03;5048765;28;20047;-49
2021/03/29 02:25:11;;;;;;;7.93;3.78;;;;;;;11.84;43.22;100955.94;5048849;28;20025;-48
2021/03/29 02:27:37;;;;;;;8.05;3.97;;;;;;;11.73;43.60;100952.72;5032093;28;20078;-49
2021/03/29 02:30:10;;;;;;;6.28;3.95;;;;;;;11.52;43.67;100956.09;5032198;28;20481;-49
2021/03/29 02:32:39;;;;;;;7.57;3.80;;;;;;;11.47;43.52;100952.31;5049837;28;20025;-52
2021/03/29 02:35:05;;;;;;;6.30;3.67;;;;;;;11.40;43.11;100951.34;5048663;28;20478;-51
2021/03/29 02:37:30;;;;;;;8.63;3.85;;;;;;;11.66;42.47;100949.13;5049773;28;20465;-50
2021/03/29 02:39:56;;;;;;;7.22;3.90;;;;;;;11.58;42.91;100959.03;5050189;28;20499;-50
2021/03/29 02:42:21;;;;;;;7.60;3.80;;;;;;;11.63;42.84;100956.66;5048843;28;20029;-49
2021/03/29 02:44:46;;;;;;;7.03;3.50;;;;;;;11.62;43.25;100963.00;5049791;28;20029;-48
2021/03/29 02:47:12;;;;;;;6.30;3.60;;;;;;;11.44;42.98;100953.50;5032093;28;20020;-47
2021/03/29 02:49:37;;;;;;;6.07;3.47;;;;;;;11.50;42.96;100962.63;5031718;28;20040;-48
2021/03/29 02:52:03;;;;;;;8.50;3.80;;;;;;;10.93;44.37;100964.69;5048811;28;20025;-50
2021/03/29 02:54:29;;;;;;;5.80;3.63;;;;;;;11.19;43.86;100960.84;5031556;28;20508;-49
2021/03/29 02:56:54;;;;;;;6.95;3.63;;;;;;;11.32;43.06;100963.72;5049752;28;20044;-50
2021/03/29 02:59:20;;;;;;;6.97;4.03;;;;;;;11.37;43.65;100970.38;5049494;28;20037;-49
2021/03/29 03:01:45;;;;;;;7.90;3.92;;;;;;;11.20;43.57;100975.00;5049244;28;20408;-50
2021/03/29 03:04:13;;;;;;;7.40;3.53;;;;;;;11.11;43.81;100982.22;5048150;28;20484;-52
2021/03/29 03:06:38;;;;;;;6.13;3.47;;;;;;;11.29;42.88;100980.09;5031418;28;20056;-49
2021/03/29 03:09:05;;;;;;;5.80;3.70;;;;;;;11.16;43.32;100979.84;5048514;28;20029;-49
2021/03/29 03:11:32;;;;;;;8.77;3.50;;;;;;;11.21;42.84;100979.31;5048221;28;20571;-51
2021/03/29 03:13:58;;;;;;;6.03;3.60;;;;;;;11.30;42.49;100978.25;5049490;28;20033;-49
2021/03/29 03:16:23;;;;;;;8.68;3.67;;;;;;;11.50;42.17;100979.44;5031699;28;20098;-49
2021/03/29 03:18:49;;;;;;;6.32;3.53;;;;;;;11.62;42.10;100992.34;5048373;28;20032;-51
2021/03/29 03:21:18;;;;;;;7.75;3.80;;;;;;;11.38;42.32;101004.00;5049499;28;20124;-50
2021/03/29 03:23:51;;;;;;;6.28;3.75;;;;;;;11.22;42.60;101000.47;5048978;28;20027;-50
2021/03/29 03:26:17;;;;;;;6.65;3.63;;;;;;;11.38;41.91;101002.16;5048776;28;20025;-48
2021/03/29 03:28:42;;;;;;;7.32;3.60;;;;;;;11.39;42.41;101003.03;5049304;28;20021;-48
2021/03/29 03:31:07;;;;;;;5.82;3.65;;;;;;;11.53;41.52;101000.38;5048071;28;20021;-51
2021/03/29 03:33:33;;;;;;;7.20;3.53;;;;;;;11.21;42.29;101008.63;5049268;28;20469;-50
2021/03/29 03:35:58;;;;;;;7.60;3.60;;;;;;;11.31;42.02;100999.41;5031378;28;20029;-52
2021/03/29 03:38:32;;;;;;;5.40;3.00;;;;;;;11.34;41.71;101001.69;5049783;28;20024;-48
2021/03/29 03:41:06;;;;;;;8.02;3.47;;;;;;;11.14;42.31;101005.84;5035035;28;20021;-47
2021/03/29 03:43:34;;;;;;;7.72;3.30;;;;;;;11.34;42.13;101001.69;5051712;28;20059;-52
2021/03/29 03:46:32;;;;;;;5.05;3.47;;;;;;;10.93;42.38;100999.31;5051617;28;20025;-48
2021/03/29 03:49:03;;;;;;;7.78;3.70;;;;;;;10.98;42.26;101005.94;5038708;28;20127;-47
2021/03/29 03:51:28;;;;;;;5.38;3.58;;;;;;;11.03;41.60;100983.09;5051657;28;20520;-51
2021/03/29 03:53:54;;;;;;;6.18;3.35;;;;;;;11.03;41.44;100998.25;5051637;28;20025;-48
2021/03/29 03:56:20;;;;;;;8.82;3.80;;;;;;;10.90;42.05;101004.16;5052613;28;20025;-51
2021/03/29 03:58:46;;;;;;;9.65;3.92;;;;;;;11.11;41.69;101004.34;5051572;28;20104;-49
2021/03/29 04:01:11;;;;;;;9.32;5.47;;;;;;;10.89;41.43;101003.31;5052264;28;20416;-49
2021/03/29 04:03:37;;;;;;;13.18;6.20;;;;;;;11.30;41.25;101005.72;5051106;28;20048;-51
2021/03/29 04:06:03;;;;;;;24.70;12.40;;;;;;;11.20;41.39;101002.47;5052212;28;20369;-50
2021/03/29 04:08:28;;;;;;;8.20;4.75;;;;;;;11.26;41.21;101017.75;5052235;28;20128;-52
2021/03/29 04:10:55;;;;;;;5.63;3.53;;;;;;;11.27;41.26;101014.09;5052278;28;20154;-51
2021/03/29 04:13:28;;;;;;;7.55;3.42;;;;;;;10.99;41.85;101012.94;5052261;28;20126;-49
2021/03/29 04:15:58;;;;;;;8.70;3.80;;;;;;;11.18;41.18;101015.13;5052271;28;20024;-47
2021/03/29 04:18:24;;;;;;;10.90;3.90;;;;;;;11.21;41.66;101019.28;5052227;28;20452;-48
2021/03/29 04:20:50;;;;;;;7.30;4.10;;;;;;;11.12;42.18;101023.84;5052247;28;20461;-49
2021/03/29 04:23:16;;;;;;;6.57;3.55;;;;;;;10.94;42.20;101024.91;5052185;28;20021;-47
2021/03/29 04:25:42;;;;;;;7.35;3.60;;;;;;;10.95;42.13;101018.59;5052232;28;20138;-49
2021/03/29 04:28:07;;;;;;;6.10;3.60;;;;;;;11.07;41.54;101016.38;5051917;28;20028;-48
2021/03/29 04:30:33;;;;;;;6.78;3.65;;;;;;;11.05;41.87;101029.03;5051966;28;20025;-50
2021/03/29 04:32:59;;;;;;;16.10;9.18;;;;;;;11.23;42.06;101035.91;5045308;28;20134;-50
2021/03/29 04:35:24;;;;;;;18.35;7.80;;;;;;;11.26;42.36;101036.41;5043973;28;20187;-51
2021/03/29 04:37:51;;;;;;;7.85;4.07;;;;;;;11.17;42.55;101039.28;5050665;28;20410;-48
2021/03/29 04:40:18;;;;;;;7.05;4.32;;;;;;;11.33;42.38;101040.03;5052160;28;20025;-51
2021/03/29 04:42:43;;;;;;;7.82;4.25;;;;;;;11.09;43.15;101041.00;5051383;28;20021;-50
2021/03/29 04:45:12;;;;;;;10.15;5.70;;;;;;;11.15;43.22;101031.47;5051994;28;20028;-49
2021/03/29 04:47:37;;;;;;;8.52;5.22;;;;;;;11.18;43.08;101036.47;5051365;28;20428;-51
2021/03/29 04:50:04;;;;;;;8.13;4.63;;;;;;;11.07;43.04;101044.84;5050814;28;20029;-51
2021/03/29 04:52:29;;;;;;;7.30;4.30;;;;;;;11.13;43.06;101047.63;5051487;28;20028;-48
2021/03/29 04:54:55;;;;;;;37.72;20.65;;;;;;;11.32;42.54;101043.69;5051554;28;20017;-52
2021/03/29 04:57:20;;;;;;;9.93;4.40;;;;;;;11.27;42.50;101046.06;5047054;28;20139;-52
2021/03/29 04:59:46;;;;;;;10.05;4.18;;;;;;;11.26;42.69;101039.06;5037507;28;20032;-51
2021/03/29 05:02:11;;;;;;;8.38;4.45;;;;;;;11.28;42.58;101041.56;5039342;28;20078;-38
2021/03/29 05:04:37;;;;;;;11.52;4.38;;;;;;;11.66;41.96;101031.78;5035798;28;20056;-51
2021/03/29 05:07:09;;;;;;;8.93;4.22;;;;;;;11.64;42.01;101038.31;5039096;28;20049;-51
2021/03/29 05:09:35;;;;;;;11.25;4.53;;;;;;;11.83;41.65;101028.97;5039478;28;20022;-49
2021/03/29 05:12:07;;;;;;;8.63;4.75;;;;;;;11.85;41.77;101035.78;5043345;28;20515;-45
2021/03/29 05:14:33;;;;;;;13.75;7.13;;;;;;;12.16;42.44;101028.69;5039916;28;20040;-50
2021/03/29 05:16:59;;;;;;;16.15;4.82;;;;;;;12.20;41.59;101028.13;5039604;28;20100;-52
2021/03/29 05:19:24;;;;;;;10.07;4.72;;;;;;;12.52;40.87;101031.47;5041044;28;20021;-50
2021/03/29 05:21:49;;;;;;;9.02;4.63;;;;;;;12.42;40.01;101020.25;5041292;28;20467;-51
2021/03/29 05:24:15;;;;;;;16.02;7.72;;;;;;;12.29;41.35;101023.56;5041661;28;20017;-52
2021/03/29 05:26:40;;;;;;;8.35;4.90;;;;;;;12.37;40.70;101022.63;5039841;28;20178;-50
2021/03/29 05:29:06;;;;;;;9.75;4.85;;;;;;;12.15;40.31;101029.69;5039650;28;20048;-51
2021/03/29 05:31:39;;;;;;;10.98;4.85;;;;;;;12.25;40.08;101022.28;5038347;28;20022;-51
2021/03/29 05:34:04;;;;;;;9.52;3.95;;;;;;;12.27;39.80;101022.91;5040064;28;20033;-49
2021/03/29 05:36:30;;;;;;;9.93;4.38;;;;;;;12.31;40.56;101026.88;5039733;28;20013;-49
2021/03/29 05:38:55;;;;;;;16.73;6.75;;;;;;;12.64;41.32;101032.66;5041484;28;20380;-49
2021/03/29 05:41:21;;;;;;;6.68;4.13;;;;;;;12.67;39.02;101031.47;5038656;28;20123;-48
2021/03/29 05:43:46;;;;;;;8.00;4.47;;;;;;;12.77;38.58;101042.69;5037423;28;20025;-48
2021/03/29 05:46:12;;;;;;;11.13;5.18;;;;;;;13.05;39.51;101045.47;5039805;28;20160;-49
2021/03/29 05:48:37;;;;;;;8.13;4.88;;;;;;;13.14;38.57;101051.56;5038884;28;20516;-38
2021/03/29 05:51:04;;;;;;;9.82;5.05;;;;;;;13.07;39.64;101053.31;5039306;28;20481;-38
2021/03/29 05:53:29;;;;;;;7.00;4.47;;;;;;;13.01;38.95;101051.41;5039442;28;20503;-39
2021/03/29 05:55:56;;;;;;;10.20;4.30;;;;;;;13.02;38.81;101058.38;5041175;28;20021;-50
2021/03/29 06:00:50;;;;;;;8.70;4.03;;;;;;;12.71;37.53;101046.91;5038876;28;20104;-38
2021/03/29 06:03:23;;;;;;;8.93;4.07;;;;;;;12.73;38.23;101060.09;5038451;28;20025;-38
2021/03/29 06:05:49;;;;;;;9.43;4.28;;;;;;;13.05;36.82;101058.03;5038471;28;20028;-48
2021/03/29 06:08:15;;;;;;;5.95;3.88;;;;;;;13.16;37.05;101049.53;5038689;28;20054;-48
2021/03/29 06:10:41;;;;;;;17.05;7.80;;;;;;;13.37;36.94;101058.63;5023077;28;20025;-49
2021/03/29 06:13:24;;;;;;;13.50;7.35;;;;;;;13.75;36.93;101066.41;5039540;28;20022;-38
2021/03/29 06:16:19;;;;;;;11.23;5.68;;;;;;;14.00;36.96;101061.47;5040944;28;20090;-38
2021/03/29 06:18:51;;;;;;;9.15;6.03;;;;;;;13.71;37.08;101060.59;5024223;28;20126;-37
2021/03/29 06:21:16;;;;;;;13.90;6.88;;;;;;;13.17;37.46;101053.00;5049567;28;20503;-37
2021/03/29 06:23:55;;;;;;;14.52;8.80;;;;;;;12.83;37.98;101052.63;5049967;28;20033;-37
2021/03/29 06:26:26;;;;;;;10.15;5.43;;;;;;;12.85;39.21;101053.28;5048854;28;20029;-37
2021/03/29 06:28:52;;;;;;;10.40;4.05;;;;;;;12.85;39.12;101057.78;5048725;28;20424;-38
2021/03/29 06:31:31;;;;;;;9.75;5.00;;;;;;;12.64;39.53;101054.03;5039872;28;20037;-37
2021/03/29 06:33:57;;;;;;;10.75;4.60;;;;;;;12.59;38.94;101059.09;5044773;28;20048;-37
2021/03/29 06:36:34;;;;;;;9.25;4.25;;;;;;;13.28;37.73;101053.34;5049593;28;20189;-38
2021/03/29 06:39:20;;;;;;;7.50;4.13;;;;;;;13.38;37.68;101052.25;5049326;28;20025;-38
2021/03/29 06:41:55;;;;;;;10.32;4.57;;;;;;;13.06;37.96;101057.00;5049396;28;20025;-38
2021/03/29 06:44:29;;;;;;;8.45;4.10;;;;;;;13.07;38.57;101069.34;5049285;28;20051;-37
2021/03/29 06:47:18;;;;;;;8.15;4.88;;;;;;;13.23;37.77;101065.63;5049543;28;20056;-38
2021/03/29 06:49:46;;;;;;;18.17;11.50;;;;;;;14.03;36.77;101067.25;5046024;28;20116;-38
2021/03/29 06:52:27;;;;;;;9.65;5.10;;;;;;;13.65;36.88;101074.72;5037235;28;20148;-36
2021/03/29 06:54:54;;;;;;;11.38;6.50;;;;;;;13.36;37.43;101070.31;5029834;28;20144;-38
2021/03/29 06:57:29;;;;;;;8.93;5.50;;;;;;;13.41;36.96;101071.41;5030181;28;20416;-39
2021/03/29 06:59:55;;;;;;;8.88;4.18;;;;;;;13.69;36.79;101079.50;5030161;28;20036;-38
2021/03/29 07:02:40;;;;;;;10.68;5.65;;;;;;;14.08;35.92;101078.19;5029146;28;20464;-37
2021/03/29 07:05:07;;;;;;;6.53;4.18;;;;;;;13.88;36.52;101083.38;5029567;28;20037;-39
2021/03/29 07:07:33;;;;;;;6.63;4.03;;;;;;;13.96;35.60;101073.56;5029165;28;20486;-39
2021/03/29 07:09:59;;;;;;;8.00;3.50;;;;;;;14.21;34.49;101073.97;5011408;28;20036;-38
2021/03/29 07:12:32;;;;;;;7.93;3.63;;;;;;;14.64;33.95;101068.47;5031363;28;20026;-51
2021/03/29 07:14:59;;;;;;;8.45;4.63;;;;;;;15.18;32.82;101078.41;5031716;28;20122;-49
2021/03/29 07:17:25;;;;;;;22.65;12.15;;;;;;;15.27;32.75;101076.41;4998151;28;20036;-52
2021/03/29 07:19:51;;;;;;;15.20;8.15;;;;;;;15.66;32.59;101079.34;5030416;28;20045;-50
2021/03/29 07:22:18;;;;;;;11.65;4.28;;;;;;;16.14;31.73;101074.63;5038629;28;20420;-52
2021/03/29 07:24:45;;;;;;;8.48;4.20;;;;;;;17.14;30.50;101071.72;5052100;28;20048;-53
2021/03/29 07:27:10;;;;;;;8.48;3.60;;;;;;;16.89;30.17;101074.31;5050778;28;20036;-52
2021/03/29 07:29:39;;;;;;;7.40;3.90;;;;;;;16.29;30.32;101074.41;5033900;28;20032;-50
2021/03/29 07:32:05;;;;;;;8.30;3.70;;;;;;;16.98;29.94;101069.50;5033842;28;20223;-50
2021/03/29 07:34:50;;;;;;;7.40;3.40;;;;;;;17.44;29.21;101068.44;5051586;28;20048;-51
2021/03/29 07:37:41;;;;;;;6.65;4.18;;;;;;;16.80;29.62;101067.47;5051911;28;20037;-54
2021/03/29 07:40:18;;;;;;;22.58;4.45;;;;;;;16.97;30.16;101073.25;5051823;28;20393;-53
2021/03/29 07:42:51;;;;;;;10.25;4.50;;;;;;;17.42;28.88;101070.53;5052072;28;20025;-51
2021/03/29 07:45:28;;;;;;;12.50;6.30;;;;;;;17.41;29.78;101065.38;5050698;28;20029;-54
2021/03/29 07:47:55;;;;;;;12.85;9.02;;;;;;;17.97;29.20;101067.25;5051472;28;20044;-51
2021/03/29 07:50:29;;;;;;;6.43;3.50;;;;;;;18.06;27.83;101065.94;5051452;28;20021;-54
2021/03/29 07:52:54;;;;;;;9.25;3.72;;;;;;;17.91;28.69;101058.16;5051511;28;20029;-51
2021/03/29 07:55:26;;;;;;;8.10;3.75;;;;;;;17.84;28.49;101062.81;5051548;28;20452;-51
2021/03/29 07:57:52;;;;;;;8.75;4.50;;;;;;;18.69;28.03;101062.16;5052068;28;20033;-53
2021/03/29 08:00:24;;;;;;;7.50;3.50;;;;;;;18.49;27.59;101062.41;5051408;28;20037;-51
2021/03/29 08:02:53;;;;;;;6.50;3.13;;;;;;;18.32;27.40;101062.16;5051250;28;20063;-50
2021/03/29 08:05:45;;;;;;;5.30;3.30;;;;;;;19.52;25.52;101060.69;5046069;28;20063;-51
2021/03/29 08:10:54;;;;;;;;;;;;;;;18.58;25.96;101059.41;5040622;28;20032;-39
2021/03/29 08:13:48;;;;;;;10.70;4.05;;;;;;;19.55;25.79;101062.09;5045005;28;20002;-37
2021/03/29 08:16:17;;;;;;;13.15;7.18;;;;;;;20.17;25.19;101069.84;5051214;28;20021;-40
2021/03/29 08:19:01;;;;;;;;;;;;;;;19.12;26.04;101053.16;5050947;28;20568;-38
2021/03/29 08:21:46;;;;;;;5.38;3.58;;;;;;;19.92;25.15;101045.75;5050799;28;19909;-39
2021/03/29 08:24:23;;;;;;;5.78;2.70;;;;;;;19.88;25.25;101060.81;5044221;28;20025;-39
2021/03/29 08:26:49;;;;;;;9.43;5.88;;;;;;;19.54;25.88;101055.06;5030955;28;20029;-39
2021/03/29 08:29:16;;;;;;;7.20;4.78;;;;;;;19.63;26.29;101044.72;5030611;28;20174;-38
2021/03/29 08:32:02;;;;;;;7.25;4.90;;;;;;;20.61;25.15;101054.09;5035277;28;20491;-38
2021/03/29 08:34:29;;;;;;;6.82;3.60;;;;;;;19.98;25.70;101061.03;5037084;28;20025;-39
2021/03/29 08:36:55;;;;;;;7.90;3.20;;;;;;;19.61;27.06;101049.56;5037774;28;20346;-39
2021/03/29 08:39:21;;;;;;;11.05;3.72;;;;;;;20.18;25.95;101043.63;5038955;28;20441;-38
2021/03/29 08:41:50;;;;;;;6.20;3.85;;;;;;;19.38;26.58;101044.91;5041423;28;20040;-38
2021/03/29 08:44:16;;;;;;;5.70;2.90;;;;;;;18.64;26.69;101035.09;5038513;28;20385;-39
2021/03/29 08:46:44;;;;;;;8.27;3.17;;;;;;;19.06;26.40;101031.69;5039281;28;20037;-39
2021/03/29 08:49:09;;;;;;;6.00;4.38;;;;;;;19.03;26.22;101035.66;5046202;28;20037;-39
2021/03/29 08:51:35;;;;;;;5.50;3.65;;;;;;;18.97;26.46;101017.69;5049579;28;20040;-40
2021/03/29 08:54:05;;;;;;;7.75;3.20;;;;;;;19.14;25.87;101007.88;5051433;28;20116;-39
2021/03/29 08:56:39;;;;;;;5.95;3.72;;;;;;;20.50;24.72;101020.59;5050931;28;20519;-40
2021/03/29 08:59:05;;;;;;;10.07;3.00;;;;;;;19.60;24.69;101012.81;5050616;28;20079;-38
2021/03/29 09:01:31;;;;;;;6.25;2.80;;;;;;;18.87;25.08;101012.03;5050498;28;20032;-39
2021/03/29 09:04:03;;;;;;;5.32;2.20;;;;;;;19.69;24.65;101008.72;5037388;28;20108;-38
2021/03/29 09:06:29;;;;;;;12.95;9.23;;;;;;;20.21;24.63;101016.16;5029809;28;20037;-38
2021/03/29 09:08:55;;;;;;;6.75;5.07;;;;;;;19.36;24.72;100999.25;5040098;28;20112;-38
2021/03/29 09:11:21;;;;;;;6.38;2.63;;;;;;;19.51;24.37;101005.06;5050442;28;20029;-37
2021/03/29 09:13:47;;;;;;;3.25;1.90;;;;;;;20.01;23.81;100997.59;5042383;28;20048;-38
2021/03/29 09:16:12;;;;;;;6.65;3.63;;;;;;;19.46;24.63;101004.13;5028812;28;20063;-39
2021/03/29 09:18:38;;;;;;;12.82;10.18;;;;;;;19.17;25.22;101008.47;5030205;28;20037;-41
2021/03/29 09:21:04;;;;;;;11.25;6.97;;;;;;;19.70;24.96;100986.91;5029579;28;20045;-39
2021/03/29 09:23:31;;;;;;;6.40;3.88;;;;;;;19.55;24.78;100991.91;5047695;28;20021;-39
2021/03/29 09:25:59;;;;;;;8.82;3.78;;;;;;;19.49;24.84;100990.94;5049874;28;20086;-39
2021/03/29 09:31:00;;;;;;;7.10;4.22;;;;;;;20.42;23.85;100971.47;5049318;28;20115;-38
2021/03/29 09:33:26;;;;;;;9.68;4.53;;;;;;;19.94;24.29;100970.72;5049299;28;20025;-38
2021/03/29 09:35:52;;;;;;;8.60;3.22;;;;;;;19.50;24.80;100978.31;5048332;28;20142;-38
2021/03/29 09:38:54;;;;;;;12.38;10.18;;;;;;;19.77;24.70;100965.19;5049155;28;20044;-39
2021/03/29 09:41:20;;;;;;;;;;;;;;;19.05;25.58;100965.28;5038283;28;20119;-39
2021/03/29 09:43:46;;;;;;;8.32;3.92;;;;;;;18.58;26.13;100960.47;5049348;28;19974;-38
2021/03/29 09:46:12;;;;;;;9.05;3.80;;;;;;;20.26;24.75;100970.34;5049359;28;20027;-38
2021/03/29 09:48:38;;;;;;;6.35;2.33;;;;;;;20.09;24.33;100959.44;5049151;28;20100;-39
2021/03/29 09:51:19;;;;;;;7.88;2.92;;;;;;;19.48;25.23;100958.81;5049204;28;20116;-39
2021/03/29 09:53:44;;;;;;;14.85;6.80;;;;;;;19.61;24.69;100949.66;5048775;28;20469;-38
2021/03/29 09:56:10;;;;;;;10.93;6.45;;;;;;;20.42;24.28;100955.25;5049961;28;20036;-38
2021/03/29 09:58:43;;;;;;;4.68;2.40;;;;;;;20.01;24.67;100954.38;5049299;28;20098;-39
2021/03/29 10:01:18;;;;;;;4.25;2.40;;;;;;;20.11;24.95;100954.59;5049409;28;20052;-38
2021/03/29 10:03:56;;;;;;;4.47;2.25;;;;;;;20.82;24.62;100944.41;5049337;28;20025;-38
2021/03/29 10:06:23;;;;;;;3.90;2.20;;;;;;;20.60;24.20;100938.88;5049444;28;20033;-39
2021/03/29 10:08:57;;;;;;;10.35;2.33;;;;;;;19.97;24.91;100939.69;5049716;28;20051;-39
2021/03/29 10:11:23;;;;;;;4.03;2.28;;;;;;;20.21;24.00;100924.28;5049796;28;20017;-39
2021/03/29 10:13:49;;;;;;;6.97;2.65;;;;;;;20.13;23.96;100928.16;5050022;28;20025;-38
2021/03/29 10:16:19;;;;;;;12.43;7.13;;;;;;;19.01;25.04;100927.16;5049970;28;20578;-39
2021/03/29 10:18:44;;;;;;;13.88;4.57;;;;;;;19.26;24.56;100932.38;5050063;28;20044;-39
2021/03/29 10:21:10;;;;;;;9.82;5.82;;;;;;;19.88;23.56;100923.03;5049590;28;20471;-38
2021/03/29 10:23:41;;;;;;;7.03;3.40;;;;;;;19.61;24.45;100919.94;5046795;28;20522;-39
2021/03/29 10:26:30;;;;;;;8.85;2.90;;;;;;;19.26;24.01;100912.66;5030053;28;20025;-39
2021/03/29 10:29:00;;;;;;;12.10;5.47;;;;;;;19.52;23.92;100909.50;5030092;28;20564;-39
2021/03/29 10:31:25;;;;;;;9.98;3.85;;;;;;;19.12;24.27;100912.06;5030121;28;20409;-39
2021/03/29 10:33:51;;;;;;;4.35;2.00;;;;;;;18.59;25.45;100894.75;5028669;28;20041;-39
2021/03/29 10:36:17;;;;;;;3.55;2.17;;;;;;;19.67;24.55;100913.63;5029489;28;20438;-40
2021/03/29 10:38:43;;;;;;;13.35;9.45;;;;;;;19.35;24.27;100908.56;5029627;28;20018;-39
2021/03/29 10:41:08;;;;;;;7.07;4.25;;;;;;;18.65;24.50;100896.53;5029774;28;20418;-39
2021/03/29 10:43:34;;;;;;;6.72;2.22;;;;;;;19.15;24.19;100895.38;5029852;28;20025;-39
2021/03/29 10:45:59;;;;;;;8.75;6.40;;;;;;;19.89;24.02;100884.97;5029994;28;20022;-40
2021/03/29 10:48:25;;;;;;;6.65;3.40;;;;;;;19.78;24.18;100912.00;5033467;28;20017;-39
2021/03/29 10:50:50;;;;;;;6.63;2.60;;;;;;;19.82;23.62;100895.09;5033633;28;20026;-39
2021/03/29 10:53:16;;;;;;;2.72;2.10;;;;;;;20.46;22.99;100892.31;5033732;28;20065;-40
2021/03/29 10:55:41;;;;;;;5.22;1.90;;;;;;;19.85;23.08;100883.00;5033671;28;20030;-38
2021/03/29 10:58:07;;;;;;;5.13;2.33;;;;;;;19.14;23.59;100896.47;5033572;28;20037;-39
2021/03/29 11:00:32;;;;;;;12.18;5.15;;;;;;;19.56;23.26;100884.75;5033697;28;20053;-40
2021/03/29 11:02:58;;;;;;;11.27;7.85;;;;;;;19.40;23.80;100867.38;5033662;28;20025;-38
2021/03/29 11:05:23;;;;;;;6.47;3.90;;;;;;;19.18;23.87;100873.34;5033601;28;20052;-39
2021/03/29 11:07:49;;;;;;;7.38;3.25;;;;;;;19.90;23.71;100861.50;5033589;28;20053;-39
2021/03/29 11:10:14;;;;;;;4.47;2.67;;;;;;;20.11;23.45;100857.34;5033843;28;20017;-40
2021/03/29 11:12:40;;;;;;;4.20;2.20;;;;;;;19.25;23.57;100862.47;5052353;28;20044;-39
2021/03/29 11:15:06;;;;;;;4.70;2.10;;;;;;;19.07;24.22;100848.00;5053564;28;20491;-39
2021/03/29 11:17:33;;;;;;;7.43;2.75;;;;;;;20.14;23.62;100846.03;5053716;28;20021;-39
2021/03/29 11:19:59;;;;;;;6.55;2.20;;;;;;;19.44;23.50;100838.84;5053565;28;20027;-39
2021/03/29 11:22:25;;;;;;;5.50;2.67;;;;;;;20.05;23.27;100832.09;5043951;28;20037;-38
2021/03/29 11:24:50;;;;;;;3.17;2.28;;;;;;;20.88;22.48;100834.41;5033647;28;20033;-38
2021/03/29 11:27:16;;;;;;;13.13;2.90;;;;;;;20.67;22.74;100828.66;5033673;28;20107;-39
2021/03/29 11:29:41;;;;;;;3.53;1.90;;;;;;;19.62;23.63;100819.00;5033469;28;20033;-38
2021/03/29 11:32:07;;;;;;;12.50;5.80;;;;;;;19.91;23.07;100815.34;5039024;28;20047;-38
2021/03/29 11:34:32;;;;;;;10.43;7.57;;;;;;;20.30;22.72;100820.13;5043549;28;20028;-38
2021/03/29 11:36:57;;;;;;;6.20;2.28;;;;;;;19.97;22.11;100810.03;5044238;28;20101;-40